Time;durP1;ratioP1;P1;durP2;ratioP2;P2;SDS_P1;SDS_P2;PMS_P1;PMS_P2;Temp;Humidity;BMP_temperature;BMP_pressure;BME280_temperature;BME280_humidity;BME280_pressure;Samples;Min_cycle;Max_cycle;Signal;HPM_P1;HPM_P2
2022/07/11 00:02:16;;;;;;;1.25;1.15;;;;;;;20.60;51.25;99483.22;5009742;28;20042;-79
2022/07/11 00:04:42;;;;;;;1.85;1.20;;;;;;;20.58;51.05;99472.56;5010114;28;20044;-80
2022/07/11 00:07:09;;;;;;;1.65;1.25;;;;;;;20.48;51.39;99465.19;5010300;28;20695;-79
2022/07/11 00:09:34;;;;;;;1.75;1.33;;;;;;;20.32;51.03;99442.00;5013750;28;20037;-79
2022/07/11 00:12:00;;;;;;;1.55;1.00;;;;;;;20.25;51.21;99434.41;5014157;28;20030;-79
2022/07/11 00:14:26;;;;;;;1.25;0.93;;;;;;;20.35;51.35;99441.81;5013920;28;20038;-80
2022/07/11 00:16:53;;;;;;;1.52;0.90;;;;;;;20.55;51.21;99447.78;5013902;28;20029;-80
2022/07/11 00:19:19;;;;;;;2.53;1.27;;;;;;;20.91;50.42;99470.66;5013959;28;20029;-80
2022/07/11 00:21:46;;;;;;;3.03;1.30;;;;;;;20.67;51.13;99446.22;4995840;28;20092;-81
2022/07/11 00:24:12;;;;;;;1.65;1.27;;;;;;;20.43;51.56;99452.06;5014158;28;20022;-80
2022/07/11 00:26:37;;;;;;;0.82;0.65;;;;;;;20.40;51.42;99465.63;5013836;28;20087;-80
2022/07/11 00:29:04;;;;;;;2.00;1.30;;;;;;;20.34;51.81;99456.19;5013495;28;20037;-80
2022/07/11 00:31:30;;;;;;;1.08;0.90;;;;;;;20.51;50.97;99457.84;5013331;28;20030;-80
2022/07/11 00:33:57;;;;;;;1.55;0.93;;;;;;;20.40;51.00;99457.59;5013802;28;20086;-80
2022/07/11 00:36:22;;;;;;;1.17;0.93;;;;;;;20.44;51.10;99445.75;5013334;28;20033;-80
2022/07/11 00:38:48;;;;;;;1.20;1.00;;;;;;;20.55;50.30;99454.00;5013538;28;20427;-80
2022/07/11 00:41:14;;;;;;;2.55;1.55;;;;;;;20.53;51.16;99465.78;5013735;28;20026;-79
2022/07/11 00:43:40;;;;;;;1.40;1.13;;;;;;;20.50;51.41;99466.81;5013659;28;20044;-80
2022/07/11 00:46:08;;;;;;;1.35;0.82;;;;;;;20.49;51.14;99472.28;5013420;28;20038;-80
2022/07/11 00:48:37;;;;;;;1.13;0.90;;;;;;;20.27;50.40;99436.06;5013005;28;20048;-79
2022/07/11 00:51:04;;;;;;;1.23;0.85;;;;;;;20.43;51.08;99472.66;5013340;28;20037;-79
2022/07/11 00:53:31;;;;;;;2.28;0.80;;;;;;;20.52;50.46;99470.25;5013074;28;20045;-79
2022/07/11 00:55:57;;;;;;;1.25;0.93;;;;;;;20.46;50.39;99462.59;5013386;28;20026;-79
2022/07/11 00:58:24;;;;;;;1.27;1.05;;;;;;;20.12;51.20;99442.31;5013055;28;20041;-79
2022/07/11 01:00:50;;;;;;;0.95;0.80;;;;;;;20.11;51.56;99457.53;5013364;28;20176;-80
2022/07/11 01:03:16;;;;;;;0.95;0.75;;;;;;;20.28;51.93;99474.41;5012721;28;20120;-80
2022/07/11 01:05:42;;;;;;;1.20;1.10;;;;;;;20.34;51.41;99474.91;5013464;28;20033;-80
2022/07/11 01:08:07;;;;;;;0.98;0.93;;;;;;;20.25;52.02;99479.94;5012536;28;20069;-79
2022/07/11 01:10:33;;;;;;;1.73;1.20;;;;;;;20.21;51.50;99480.13;5013013;28;20034;-79
2022/07/11 01:12:59;;;;;;;0.98;0.88;;;;;;;20.12;51.87;99490.50;5013136;28;20037;-79
2022/07/11 01:15:25;;;;;;;3.15;1.40;;;;;;;19.95;52.16;99462.03;5013057;28;20037;-79
2022/07/11 01:17:53;;;;;;;1.23;1.02;;;;;;;20.00;52.13;99478.69;5012244;28;20048;-80
2022/07/11 01:20:22;;;;;;;0.98;0.88;;;;;;;20.08;51.92;99478.22;5012467;28;20455;-79
2022/07/11 01:22:54;;;;;;;0.90;0.90;;;;;;;20.13;51.59;99484.22;5012800;28;20032;-79
2022/07/11 01:25:32;;;;;;;0.85;0.70;;;;;;;20.04;51.64;99478.41;4994989;28;20431;-79
2022/07/11 01:27:58;;;;;;;1.55;1.10;;;;;;;20.19;51.75;99507.94;5012534;28;20096;-79
2022/07/11 01:30:24;;;;;;;0.80;0.75;;;;;;;20.24;51.34;99496.97;5012236;28;20042;-79
2022/07/11 01:32:53;;;;;;;0.68;0.68;;;;;;;20.35;51.47;99495.38;5012564;28;20136;-79
2022/07/11 01:35:19;;;;;;;0.90;0.63;;;;;;;20.33;51.60;99489.25;5012598;28;20042;-79
2022/07/11 01:37:45;;;;;;;0.77;0.77;;;;;;;20.06;52.31;99494.38;5012311;28;20515;-82
2022/07/11 01:40:11;;;;;;;0.80;0.77;;;;;;;20.04;52.85;99488.28;4995109;28;20026;-79
2022/07/11 01:42:36;;;;;;;1.50;1.10;;;;;;;20.13;52.15;99478.84;5012239;28;20026;-80
2022/07/11 01:45:03;;;;;;;1.98;0.80;;;;;;;19.96;51.79;99469.13;5012203;28;20036;-79
2022/07/11 01:47:28;;;;;;;1.35;0.88;;;;;;;20.26;51.89;99501.25;5012097;28;20026;-79
2022/07/11 01:49:55;;;;;;;1.20;1.00;;;;;;;20.25;51.79;99498.69;5011581;28;20513;-80
2022/07/11 01:52:20;;;;;;;2.53;1.27;;;;;;;19.85;53.11;99472.41;5012775;28;20076;-80
2022/07/11 01:54:46;;;;;;;1.58;0.93;;;;;;;20.06;51.76;99482.81;5012215;28;20033;-79
2022/07/11 01:57:11;;;;;;;1.08;0.98;;;;;;;19.97;51.88;99460.13;5011647;28;20029;-80
2022/07/11 01:59:37;;;;;;;1.33;1.00;;;;;;;20.26;51.79;99501.25;5011810;28;20034;-79
2022/07/11 02:02:02;;;;;;;2.30;1.13;;;;;;;19.99;52.11;99483.19;5012256;28;20455;-79
2022/07/11 02:04:28;;;;;;;1.15;0.73;;;;;;;20.05;52.18;99500.72;5011395;28;20034;-79
2022/07/11 02:06:53;;;;;;;2.28;1.30;;;;;;;19.73;52.92;99486.44;5011737;28;20029;-79
2022/07/11 02:09:19;;;;;;;1.27;0.60;;;;;;;19.76;53.07;99496.97;5011648;28;20033;-80
2022/07/11 02:11:44;;;;;;;1.00;0.75;;;;;;;19.66;53.32;99493.94;5011890;28;20113;-79
2022/07/11 02:14:10;;;;;;;1.05;1.02;;;;;;;19.66;53.01;99489.47;5011766;28;20087;-79
2022/07/11 02:16:35;;;;;;;1.33;0.88;;;;;;;19.79;53.17;99499.50;5011627;28;20499;-79
2022/07/11 02:19:01;;;;;;;6.80;1.55;;;;;;;19.82;52.77;99497.53;5011373;28;20036;-79
2022/07/11 02:21:26;;;;;;;1.80;1.10;;;;;;;19.73;52.82;99498.00;5011477;28;20034;-79
2022/07/11 02:23:51;;;;;;;1.10;0.73;;;;;;;19.71;53.26;99494.56;5011943;28;20037;-79
2022/07/11 02:26:17;;;;;;;2.50;1.30;;;;;;;19.65;52.54;99476.19;5011384;28;20503;-79
2022/07/11 02:28:44;;;;;;;1.00;0.95;;;;;;;19.75;52.83;99488.06;5011181;28;20033;-79
2022/07/11 02:31:09;;;;;;;1.35;0.75;;;;;;;19.90;52.49;99506.94;5010958;28;20128;-78
2022/07/11 02:33:35;;;;;;;4.15;1.70;;;;;;;19.98;51.84;99494.81;5010857;28;20512;-79
2022/07/11 02:36:01;;;;;;;1.20;0.90;;;;;;;19.97;52.25;99506.50;5011674;28;20044;-79
2022/07/11 02:38:26;;;;;;;0.60;0.60;;;;;;;19.88;52.29;99479.38;5010769;28;20042;-80
2022/07/11 02:40:53;;;;;;;0.90;0.85;;;;;;;20.09;51.52;99504.06;5011474;28;20033;-80
2022/07/11 02:43:19;;;;;;;1.38;1.10;;;;;;;19.96;52.31;99493.22;4993168;28;20496;-79
2022/07/11 02:45:44;;;;;;;1.08;0.90;;;;;;;20.04;51.36;99494.47;5010828;28;20117;-79
2022/07/11 02:48:10;;;;;;;1.23;1.00;;;;;;;19.93;51.66;99509.44;5010717;28;20056;-79
2022/07/11 02:50:35;;;;;;;0.65;0.65;;;;;;;19.73;52.04;99492.66;5011449;28;20026;-78
2022/07/11 02:53:01;;;;;;;0.77;0.70;;;;;;;19.88;51.88;99515.06;5011013;28;20499;-79
2022/07/11 02:55:26;;;;;;;1.02;0.85;;;;;;;19.90;51.72;99486.38;5011106;28;20056;-79
2022/07/11 02:57:52;;;;;;;0.80;0.75;;;;;;;20.03;51.23;99514.19;5011056;28;20487;-80
2022/07/11 03:00:18;;;;;;;1.98;1.17;;;;;;;20.07;51.50;99514.00;5010816;28;20462;-80
2022/07/11 03:02:44;;;;;;;1.15;0.90;;;;;;;19.94;52.43;99519.19;5010838;28;20033;-79
2022/07/11 03:05:12;;;;;;;0.55;0.55;;;;;;;19.71;52.23;99507.94;5010546;28;20480;-79
2022/07/11 03:07:38;;;;;;;2.35;1.00;;;;;;;19.89;52.32;99522.13;5011081;28;20480;-80
2022/07/11 03:10:04;;;;;;;1.13;0.85;;;;;;;19.74;52.19;99506.88;5011195;28;20034;-81
2022/07/11 03:12:29;;;;;;;0.60;0.60;;;;;;;19.99;51.92;99531.38;5010356;28;20033;-80
2022/07/11 03:14:55;;;;;;;0.98;0.77;;;;;;;19.60;52.64;99510.31;5010933;28;20030;-80
2022/07/11 03:17:21;;;;;;;1.80;1.70;;;;;;;19.63;52.01;99510.16;5010647;28;20084;-80
2022/07/11 03:19:49;;;;;;;1.85;1.23;;;;;;;19.76;51.79;99511.22;5010849;28;20038;-80
2022/07/11 03:22:16;;;;;;;1.05;0.65;;;;;;;19.89;51.51;99540.00;5010102;28;20041;-79
2022/07/11 03:24:44;;;;;;;1.65;1.13;;;;;;;19.63;51.53;99496.78;5011017;28;20619;-79
2022/07/11 03:27:10;;;;;;;1.00;0.80;;;;;;;19.64;52.15;99519.91;5009446;28;20393;-81
2022/07/11 03:29:36;;;;;;;1.02;0.80;;;;;;;19.73;51.57;99531.94;5010895;28;20061;-81
2022/07/11 03:32:02;;;;;;;3.00;0.77;;;;;;;19.65;51.71;99518.97;5010435;28;20034;-80
2022/07/11 03:34:28;;;;;;;1.23;0.82;;;;;;;19.81;51.93;99546.63;5010178;28;20034;-81
2022/07/11 03:36:54;;;;;;;0.90;0.68;;;;;;;19.66;51.68;99520.69;5010739;28;20069;-83
2022/07/11 03:39:21;;;;;;;0.85;0.70;;;;;;;19.90;52.16;99549.75;5010795;28;20069;-81
2022/07/11 03:41:47;;;;;;;1.33;0.88;;;;;;;19.81;51.53;99527.91;5010479;28;20084;-79
2022/07/11 03:44:12;;;;;;;0.93;0.90;;;;;;;19.86;51.23;99538.34;5013174;28;20041;-81
2022/07/11 03:46:38;;;;;;;1.83;1.20;;;;;;;20.15;51.38;99544.72;5014415;28;20038;-81
2022/07/11 03:49:03;;;;;;;1.15;0.80;;;;;;;19.93;51.58;99539.75;5014298;28;20559;-77
2022/07/11 03:51:29;;;;;;;1.15;0.80;;;;;;;19.95;51.57;99551.22;5013921;28;20048;-77
2022/07/11 03:53:55;;;;;;;1.35;1.00;;;;;;;20.09;51.16;99553.13;5014680;28;20404;-80
2022/07/11 03:56:22;;;;;;;1.20;0.98;;;;;;;20.03;51.69;99543.63;5013565;28;20084;-78
2022/07/11 03:58:50;;;;;;;0.65;0.65;;;;;;;20.20;50.90;99558.75;5014225;28;20080;-79
2022/07/11 04:01:16;;;;;;;0.60;0.60;;;;;;;20.26;50.90;99564.69;5013962;28;20088;-80
2022/07/11 04:03:42;;;;;;;0.82;0.77;;;;;;;20.32;50.31;99569.69;5013622;28;20033;-79
2022/07/11 04:06:08;;;;;;;0.75;0.75;;;;;;;20.32;50.86;99561.66;5014068;28;20487;-80
2022/07/11 04:08:33;;;;;;;1.42;0.90;;;;;;;20.36;51.03;99579.28;5013327;28;20422;-81
2022/07/11 04:10:59;;;;;;;1.02;0.93;;;;;;;20.14;50.67;99553.75;5013254;28;20042;-81
2022/07/11 04:13:25;;;;;;;0.70;0.63;;;;;;;20.44;50.59;99578.84;4995927;28;20038;-80
2022/07/11 04:15:50;;;;;;;0.65;0.63;;;;;;;20.34;50.76;99574.03;5013764;28;20029;-80
2022/07/11 04:18:17;;;;;;;1.40;0.80;;;;;;;20.44;50.60;99546.72;5013660;28;20115;-80
2022/07/11 04:20:42;;;;;;;1.15;0.70;;;;;;;20.58;50.34;99573.53;5013700;28;20410;-80
2022/07/11 04:23:08;;;;;;;0.40;0.40;;;;;;;20.74;49.71;99573.53;5013910;28;20033;-80
2022/07/11 04:25:34;;;;;;;1.13;0.90;;;;;;;20.90;49.98;99581.53;5012297;28;20030;-81
2022/07/11 04:28:00;;;;;;;0.70;0.60;;;;;;;20.74;49.91;99552.97;5013968;28;20411;-80
2022/07/11 04:30:25;;;;;;;1.58;0.85;;;;;;;20.72;49.56;99578.13;5013279;28;20040;-80
2022/07/11 04:32:51;;;;;;;0.70;0.70;;;;;;;20.71;49.70;99571.91;5012755;28;20043;-80
2022/07/11 04:35:17;;;;;;;2.22;0.82;;;;;;;20.63;49.28;99539.28;5013800;28;20049;-80
2022/07/11 04:37:43;;;;;;;1.38;1.05;;;;;;;20.83;49.64;99578.34;5013503;28;20416;-81
2022/07/11 04:40:09;;;;;;;4.53;1.33;;;;;;;21.11;48.86;99593.63;5012478;28;20443;-80
2022/07/11 04:42:35;;;;;;;0.77;0.70;;;;;;;20.99;48.77;99586.38;5013127;28;20030;-80
2022/07/11 04:45:00;;;;;;;0.60;0.60;;;;;;;20.92;48.57;99590.34;5012601;28;20022;-80
2022/07/11 04:47:26;;;;;;;2.40;1.20;;;;;;;20.84;49.54;99580.09;5012827;28;20042;-80
2022/07/11 04:49:52;;;;;;;1.75;0.85;;;;;;;20.90;48.61;99574.34;4994992;28;20045;-81
2022/07/11 04:52:17;;;;;;;1.02;0.80;;;;;;;21.11;48.55;99595.47;5012811;28;20037;-83
2022/07/11 04:54:43;;;;;;;0.80;0.80;;;;;;;21.09;47.79;99594.72;5011894;28;20034;-82
2022/07/11 04:57:09;;;;;;;0.70;0.57;;;;;;;21.19;48.27;99585.13;5013650;28;20109;-82
2022/07/11 04:59:34;;;;;;;1.10;0.90;;;;;;;21.22;47.63;99605.53;5013326;28;20116;-82
2022/07/11 05:02:00;;;;;;;1.08;0.65;;;;;;;21.27;47.79;99590.91;5013243;28;20030;-83
2022/07/11 05:04:26;;;;;;;1.10;0.65;;;;;;;21.25;47.87;99598.16;5013317;28;20452;-82
2022/07/11 05:06:51;;;;;;;1.55;1.00;;;;;;;21.51;48.54;99589.53;5012440;28;20034;-82
2022/07/11 05:09:17;;;;;;;0.75;0.57;;;;;;;21.51;47.38;99584.16;5013046;28;20061;-79
2022/07/11 05:11:43;;;;;;;0.50;0.50;;;;;;;21.33;47.52;99599.53;5012993;28;20048;-79
2022/07/11 05:14:08;;;;;;;0.60;0.50;;;;;;;21.50;47.03;99606.56;5012342;28;20066;-80
2022/07/11 05:16:34;;;;;;;1.83;1.50;;;;;;;21.63;46.89;99611.09;5012735;28;20070;-80
2022/07/11 05:18:59;;;;;;;0.77;0.70;;;;;;;21.67;46.89;99600.16;5012969;28;20026;-79
2022/07/11 05:21:25;;;;;;;0.55;0.47;;;;;;;21.84;46.03;99624.13;5012447;28;20034;-80
2022/07/11 05:23:50;;;;;;;0.60;0.40;;;;;;;21.75;45.81;99609.47;5012750;28;20252;-80
2022/07/11 05:26:16;;;;;;;4.13;0.65;;;;;;;21.82;47.08;99624.22;5013333;28;20034;-81
2022/07/11 05:28:42;;;;;;;1.35;0.45;;;;;;;22.08;45.73;99624.38;5012528;28;20073;-80
2022/07/11 05:31:08;;;;;;;1.08;0.80;;;;;;;21.92;46.08;99586.91;5012955;28;20393;-80
2022/07/11 05:33:34;;;;;;;1.20;0.60;;;;;;;22.20;44.30;99611.13;5012613;28;20128;-81
2022/07/11 05:36:01;;;;;;;1.80;0.68;;;;;;;22.44;45.46;99600.66;5012617;28;20403;-80
2022/07/11 05:38:27;;;;;;;2.17;0.95;;;;;;;22.59;44.33;99626.50;4994929;28;20520;-80
2022/07/11 05:40:52;;;;;;;0.82;0.80;;;;;;;22.93;44.68;99626.94;5012508;28;20029;-80
2022/07/11 05:43:18;;;;;;;1.33;0.88;;;;;;;22.77;43.75;99607.41;5012656;28;20072;-80
2022/07/11 05:45:43;;;;;;;2.25;1.27;;;;;;;22.63;44.54;99632.53;5012461;28;20025;-80
2022/07/11 05:48:09;;;;;;;0.65;0.60;;;;;;;22.34;44.23;99590.50;5012097;28;20041;-81
2022/07/11 05:50:35;;;;;;;2.67;1.45;;;;;;;22.60;44.29;99609.44;5012506;28;20408;-80
2022/07/11 05:53:02;;;;;;;0.93;0.75;;;;;;;22.73;43.96;99608.63;4994686;28;20385;-80
2022/07/11 05:55:28;;;;;;;1.27;0.70;;;;;;;22.93;43.64;99616.19;5012417;28;20034;-80
2022/07/11 05:57:53;;;;;;;0.88;0.52;;;;;;;23.28;43.26;99629.09;5012398;28;20037;-80
2022/07/11 06:00:21;;;;;;;0.85;0.77;;;;;;;23.14;42.98;99648.00;5012142;28;20087;-80
2022/07/11 06:02:47;;;;;;;0.70;0.60;;;;;;;23.19;43.66;99635.13;5011836;28;20057;-80
2022/07/11 06:05:12;;;;;;;0.43;0.40;;;;;;;23.16;43.56;99646.94;5012028;28;20480;-80
2022/07/11 06:10:22;;;;;;;0.77;0.77;;;;;;;23.26;43.32;99643.63;5012161;28;20044;-80
2022/07/11 06:12:47;;;;;;;0.65;0.50;;;;;;;23.49;42.83;99633.97;5012056;28;20026;-80
2022/07/11 06:15:13;;;;;;;7.95;1.65;;;;;;;23.62;42.08;99650.09;5011852;28;20125;-81
2022/07/11 06:17:38;;;;;;;2.17;0.75;;;;;;;23.51;42.78;99635.59;5011884;28;20037;-81
2022/07/11 06:20:04;;;;;;;1.67;0.90;;;;;;;23.72;42.54;99635.03;5011828;28;20068;-80
2022/07/11 06:22:30;;;;;;;1.02;0.73;;;;;;;23.75;41.35;99646.44;5012067;28;20069;-80
2022/07/11 06:24:55;;;;;;;2.38;1.25;;;;;;;23.78;41.07;99658.84;5011996;28;20491;-80
2022/07/11 06:27:21;;;;;;;0.80;0.70;;;;;;;23.57;41.37;99624.38;5012091;28;20030;-80
2022/07/11 06:29:46;;;;;;;0.43;0.43;;;;;;;23.93;40.04;99651.53;5011687;28;20476;-80
2022/07/11 06:32:12;;;;;;;4.72;0.60;;;;;;;24.09;40.45;99635.13;5011659;28;20064;-79
2022/07/11 06:34:38;;;;;;;0.73;0.60;;;;;;;24.47;41.62;99655.75;5011104;28;20029;-81
2022/07/11 06:37:04;;;;;;;1.45;0.40;;;;;;;24.25;38.60;99645.66;5011869;28;20036;-79
2022/07/11 06:39:29;;;;;;;4.07;0.88;;;;;;;24.55;40.07;99655.19;5011614;28;20034;-79
2022/07/11 06:41:55;;;;;;;0.43;0.38;;;;;;;24.54;40.43;99659.69;5011595;28;20072;-80
2022/07/11 06:44:20;;;;;;;0.95;0.82;;;;;;;24.71;39.77;99658.47;5011653;28;20397;-79
2022/07/11 06:46:45;;;;;;;5.50;0.63;;;;;;;24.90;38.94;99644.47;5011531;28;20029;-80
2022/07/11 06:49:13;;;;;;;0.82;0.40;;;;;;;25.03;39.12;99674.09;5010944;28;20506;-81
2022/07/11 06:51:38;;;;;;;0.55;0.50;;;;;;;25.10;38.93;99664.56;5011905;28;20524;-81
2022/07/11 06:54:04;;;;;;;0.40;0.40;;;;;;;25.10;38.38;99658.28;5011902;28;20027;-80
2022/07/11 06:56:30;;;;;;;4.03;0.73;;;;;;;25.08;38.11;99655.69;5011183;28;20057;-80
2022/07/11 06:58:55;;;;;;;0.40;0.40;;;;;;;25.29;37.96;99639.72;5011425;28;20092;-80
2022/07/11 07:01:21;;;;;;;0.68;0.68;;;;;;;25.31;36.10;99635.06;5011749;28;20033;-79
2022/07/11 07:03:46;;;;;;;0.43;0.22;;;;;;;25.73;35.82;99650.72;5010817;28;20475;-80
2022/07/11 07:06:12;;;;;;;0.20;0.20;;;;;;;25.70;36.13;99641.06;5011327;28;20033;-80
2022/07/11 07:08:38;;;;;;;1.30;0.68;;;;;;;25.40;34.77;99641.59;5011072;28;20539;-80
2022/07/11 07:11:03;;;;;;;0.63;0.63;;;;;;;25.38;36.70;99643.56;5011303;28;20030;-80
2022/07/11 07:13:29;;;;;;;1.40;0.63;;;;;;;25.18;37.29;99636.97;5011366;28;20601;-80
2022/07/11 07:15:59;;;;;;;0.65;0.55;;;;;;;25.64;35.89;99663.13;5011065;28;20045;-80
2022/07/11 07:18:25;;;;;;;0.20;0.20;;;;;;;25.78;36.30;99664.75;5012487;28;20036;-81
2022/07/11 07:20:52;;;;;;;0.80;0.50;;;;;;;26.34;36.00;99665.75;5015486;28;20030;-80
2022/07/11 07:23:17;;;;;;;0.55;0.55;;;;;;;26.03;35.17;99652.88;5015150;28;20037;-80
2022/07/11 07:25:43;;;;;;;5.03;1.27;;;;;;;25.89;35.44;99640.44;5014860;28;20034;-81
2022/07/11 07:28:09;;;;;;;0.68;0.55;;;;;;;26.04;35.49;99642.91;5015120;28;20042;-80
2022/07/11 07:30:34;;;;;;;1.08;0.68;;;;;;;26.26;37.80;99636.66;5014920;28;20034;-79
2022/07/11 07:33:00;;;;;;;0.52;0.50;;;;;;;26.64;34.70;99648.84;5014669;28;20058;-80
2022/07/11 07:35:27;;;;;;;0.50;0.50;;;;;;;26.58;34.12;99663.72;5015045;28;20072;-80
2022/07/11 07:37:53;;;;;;;0.30;0.30;;;;;;;26.94;33.91;99648.16;5014953;28;20484;-80
2022/07/11 07:40:18;;;;;;;1.33;0.45;;;;;;;27.04;33.85;99650.09;5014898;28;20076;-81
2022/07/11 07:42:44;;;;;;;0.88;0.35;;;;;;;26.89;36.11;99653.09;5014840;28;20042;-81
2022/07/11 07:45:10;;;;;;;0.80;0.47;;;;;;;26.83;35.36;99629.25;5014991;28;20554;-80
2022/07/11 07:47:36;;;;;;;0.80;0.80;;;;;;;26.86;34.09;99647.94;5014422;28;20029;-81
2022/07/11 07:50:02;;;;;;;0.77;0.30;;;;;;;26.49;33.95;99640.13;5014692;28;20415;-81
2022/07/11 07:52:28;;;;;;;0.70;0.45;;;;;;;26.93;34.86;99626.66;5014761;28;20041;-79
2022/07/11 07:54:54;;;;;;;0.77;0.50;;;;;;;26.69;34.14;99653.91;5014618;28;20108;-79
2022/07/11 07:57:19;;;;;;;1.45;0.73;;;;;;;26.62;34.18;99637.31;5014440;28;20030;-81
2022/07/11 07:59:45;;;;;;;1.35;0.82;;;;;;;27.06;35.79;99643.53;5014555;28;20052;-81
2022/07/11 08:02:10;;;;;;;1.52;0.88;;;;;;;26.93;33.96;99638.31;5014477;28;20037;-81
2022/07/11 08:04:36;;;;;;;0.50;0.50;;;;;;;27.07;35.14;99628.19;5014151;28;20504;-81
2022/07/11 08:07:02;;;;;;;0.77;0.57;;;;;;;26.82;36.56;99637.50;5014671;28;20109;-80
2022/07/11 08:09:28;;;;;;;0.85;0.73;;;;;;;26.82;34.12;99626.66;5014517;28;20121;-81
2022/07/11 08:11:54;;;;;;;1.13;0.63;;;;;;;26.83;32.13;99629.25;5014236;28;20064;-80
2022/07/11 08:14:19;;;;;;;0.35;0.35;;;;;;;26.59;31.85;99657.34;5014447;28;20034;-81
2022/07/11 08:16:46;;;;;;;1.48;1.27;;;;;;;26.69;32.04;99654.75;5014040;28;20476;-82
2022/07/11 08:19:11;;;;;;;0.85;0.43;;;;;;;26.62;33.75;99629.19;5014400;28;20038;-81
2022/07/11 08:21:37;;;;;;;1.45;0.60;;;;;;;27.49;33.54;99639.03;5014538;28;20040;-80
2022/07/11 08:24:03;;;;;;;1.00;0.65;;;;;;;27.78;33.57;99619.41;5014171;28;20046;-81
2022/07/11 08:26:29;;;;;;;0.47;0.38;;;;;;;27.73;33.34;99627.06;5014147;28;20034;-80
2022/07/11 08:28:54;;;;;;;0.65;0.63;;;;;;;27.27;34.61;99635.44;5013892;28;20414;-81
2022/07/11 08:31:20;;;;;;;1.25;0.57;;;;;;;27.83;34.57;99641.50;5013844;28;20572;-81
2022/07/11 08:33:46;;;;;;;0.65;0.52;;;;;;;27.46;31.45;99639.31;5013728;28;20042;-82
2022/07/11 08:36:11;;;;;;;0.65;0.63;;;;;;;26.72;30.53;99653.66;5013806;28;20092;-81
2022/07/11 08:38:39;;;;;;;0.50;0.45;;;;;;;26.62;32.16;99608.41;5013844;28;20030;-81
2022/07/11 08:41:05;;;;;;;0.65;0.40;;;;;;;26.83;32.91;99633.81;5013816;28;20026;-81
2022/07/11 08:43:31;;;;;;;3.05;1.00;;;;;;;26.80;32.14;99629.50;5013851;28;20053;-80
2022/07/11 08:45:57;;;;;;;3.22;1.08;;;;;;;26.88;31.47;99629.75;5013331;28;20423;-81
2022/07/11 08:48:23;;;;;;;0.98;0.77;;;;;;;26.77;31.88;99618.94;5013398;28;20037;-81
2022/07/11 08:50:50;;;;;;;1.23;0.73;;;;;;;27.10;31.75;99608.97;5013612;28;20104;-82
2022/07/11 08:53:16;;;;;;;1.33;0.70;;;;;;;26.95;33.23;99595.75;5013362;28;20113;-80
2022/07/11 08:55:42;;;;;;;0.38;0.35;;;;;;;27.56;31.51;99612.28;5013668;28;20030;-82
2022/07/11 08:58:09;;;;;;;0.68;0.60;;;;;;;27.97;32.25;99627.63;5013709;28;20424;-80
2022/07/11 09:00:36;;;;;;;0.45;0.45;;;;;;;27.80;35.29;99603.84;5013062;28;20029;-81
2022/07/11 09:03:03;;;;;;;1.08;0.75;;;;;;;28.04;31.87;99608.97;5013499;28;20056;-81
2022/07/11 09:05:33;;;;;;;0.40;0.30;;;;;;;27.90;31.66;99620.13;5013407;28;20041;-80
2022/07/11 09:07:59;;;;;;;0.73;0.50;;;;;;;28.15;30.97;99627.00;5012950;28;20034;-81
2022/07/11 09:10:25;;;;;;;1.00;0.68;;;;;;;27.85;31.32;99626.84;5013159;28;20168;-81
2022/07/11 09:13:04;;;;;;;1.40;1.08;;;;;;;28.12;31.56;99600.16;5012846;28;20415;-81
2022/07/11 09:15:38;;;;;;;0.77;0.77;;;;;;;27.81;31.38;99606.41;5013153;28;20038;-80
2022/07/11 09:18:05;;;;;;;1.33;0.50;;;;;;;27.79;31.59;99626.50;5012956;28;20562;-81
2022/07/11 09:26:38;;;;;;;0.20;0.20;;;;;;;28.07;32.06;99613.25;5013175;28;20534;-81
2022/07/11 09:29:05;;;;;;;0.50;0.50;;;;;;;27.60;33.35;99611.88;5012918;28;20033;-80
2022/07/11 09:31:32;;;;;;;0.38;0.28;;;;;;;28.13;31.38;99623.53;5012740;28;20033;-80
2022/07/11 09:34:01;;;;;;;0.70;0.55;;;;;;;28.33;31.91;99611.78;5012304;28;20049;-81
2022/07/11 09:36:37;;;;;;;1.23;0.52;;;;;;;28.66;28.74;99619.72;5012544;28;20527;-81
2022/07/11 09:39:04;;;;;;;0.55;0.40;;;;;;;28.55;29.96;99596.25;5012761;28;20052;-81
2022/07/11 09:41:34;;;;;;;1.08;0.60;;;;;;;28.53;27.94;99603.66;5012286;28;20026;-80
2022/07/11 09:44:11;;;;;;;0.40;0.40;;;;;;;28.15;28.27;99597.16;5012575;28;20018;-80
2022/07/11 09:46:37;;;;;;;1.15;0.63;;;;;;;28.34;30.43;99615.34;5012411;28;20096;-80
2022/07/11 09:49:03;;;;;;;0.85;0.52;;;;;;;28.61;29.92;99609.28;5012293;28;20030;-80
2022/07/11 09:51:31;;;;;;;0.40;0.30;;;;;;;28.98;29.89;99591.41;5012560;28;20396;-80
2022/07/11 09:53:57;;;;;;;2.15;0.77;;;;;;;28.91;27.33;99604.72;5012282;28;20535;-80
2022/07/11 09:56:34;;;;;;;0.28;0.28;;;;;;;28.35;26.89;99611.63;5012355;28;20033;-81
2022/07/11 09:59:01;;;;;;;1.25;0.60;;;;;;;28.27;28.13;99617.75;5012192;28;20025;-80
2022/07/11 10:01:28;;;;;;;0.70;0.40;;;;;;;28.67;26.97;99607.84;5012027;28;20510;-80
2022/07/11 10:03:54;;;;;;;0.43;0.40;;;;;;;28.85;30.37;99616.16;5012184;28;20025;-81
2022/07/11 10:06:19;;;;;;;0.45;0.35;;;;;;;28.73;26.64;99600.00;5012176;28;20125;-79
2022/07/11 10:08:45;;;;;;;0.45;0.40;;;;;;;28.77;29.69;99607.88;5012056;28;20038;-80
2022/07/11 10:11:11;;;;;;;0.65;0.43;;;;;;;28.48;25.73;99612.22;5012027;28;20026;-80
2022/07/11 10:13:38;;;;;;;0.57;0.10;;;;;;;28.44;24.59;99620.75;5011830;28;20058;-81
2022/07/11 10:16:15;;;;;;;0.30;0.30;;;;;;;28.32;27.46;99630.91;5012223;28;20411;-80
2022/07/11 10:18:51;;;;;;;0.93;0.40;;;;;;;28.06;24.10;99601.56;5011668;28;20040;-80
2022/07/11 10:21:27;;;;;;;0.68;0.30;;;;;;;28.28;25.27;99603.19;5011907;28;20057;-81
2022/07/11 10:24:07;;;;;;;0.75;0.75;;;;;;;28.67;25.62;99608.72;5011710;28;20046;-80
2022/07/11 10:27:12;;;;;;;0.40;0.40;;;;;;;28.75;27.57;99619.72;5012275;28;20068;-81
2022/07/11 10:29:48;;;;;;;0.28;0.28;;;;;;;27.98;24.37;99591.41;5011441;28;20049;-80
2022/07/11 10:32:14;;;;;;;0.90;0.90;;;;;;;28.68;26.62;99596.00;5011331;28;20585;-81
2022/07/11 10:34:40;;;;;;;0.17;0.17;;;;;;;28.32;21.77;99620.06;5011573;28;20105;-80
2022/07/11 10:37:07;;;;;;;0.30;0.15;;;;;;;28.03;22.16;99608.09;5011757;28;20053;-81
2022/07/11 10:39:35;;;;;;;0.90;0.52;;;;;;;28.16;24.63;99597.03;5011577;28;20037;-80
2022/07/11 10:42:06;;;;;;;1.58;0.30;;;;;;;28.65;23.56;99599.84;5011536;28;20034;-80
2022/07/11 10:44:54;;;;;;;0.52;0.45;;;;;;;28.85;25.71;99608.84;5011367;28;20034;-81
2022/07/11 10:47:44;;;;;;;1.00;0.50;;;;;;;28.82;22.90;99621.84;5011676;28;20026;-80
2022/07/11 10:50:38;;;;;;;0.80;0.30;;;;;;;28.21;24.57;99612.88;5011566;28;20057;-81
2022/07/11 10:53:20;;;;;;;0.68;0.28;;;;;;;28.47;21.98;99590.66;5004601;28;20049;-81
2022/07/11 10:56:19;;;;;;;1.17;0.50;;;;;;;28.49;23.94;99610.38;5011328;28;20049;-79
2022/07/11 10:58:55;;;;;;;1.08;0.55;;;;;;;28.75;23.75;99597.16;5011343;28;20030;-80
2022/07/11 11:01:20;;;;;;;;;;;;;;;28.82;25.46;99597.44;5011643;28;20029;-80
2022/07/11 11:03:46;;;;;;;0.63;0.63;;;;;;;28.89;27.73;99591.28;5011376;28;19940;-80
2022/07/11 11:06:12;;;;;;;0.30;0.30;;;;;;;28.95;23.45;99600.72;5011479;28;20038;-82
2022/07/11 11:08:40;;;;;;;0.65;0.30;;;;;;;28.51;26.71;99590.22;5011432;28;20057;-80
2022/07/11 11:11:24;;;;;;;0.40;0.40;;;;;;;28.55;26.30;99585.41;5011514;28;20033;-80
2022/07/11 11:14:37;;;;;;;0.30;0.30;;;;;;;28.46;26.90;99597.94;5011234;28;20492;-81
2022/07/11 11:17:34;;;;;;;2.05;0.45;;;;;;;28.79;25.52;99597.72;4998194;28;20042;-82
2022/07/11 11:19:59;;;;;;;0.50;0.32;;;;;;;28.99;27.48;99566.00;5011347;28;20482;-80
2022/07/11 11:22:25;;;;;;;1.05;0.55;;;;;;;28.43;24.79;99572.97;5010972;28;20057;-79
2022/07/11 11:24:53;;;;;;;0.93;0.50;;;;;;;28.39;27.34;99578.66;5011016;28;20026;-80
2022/07/11 11:27:24;;;;;;;0.95;0.52;;;;;;;28.17;26.68;99593.31;5011173;28;20034;-80
2022/07/11 11:29:52;;;;;;;0.63;0.63;;;;;;;28.65;29.88;99599.00;5011127;28;20033;-80
2022/07/11 11:32:19;;;;;;;0.45;0.45;;;;;;;29.33;26.62;99579.97;5010932;28;20894;-80
2022/07/11 11:34:45;;;;;;;2.70;0.38;;;;;;;28.98;26.06;99573.28;5010689;28;20496;-80
2022/07/11 11:37:11;;;;;;;1.08;0.68;;;;;;;29.21;25.96;99570.25;5010751;28;20040;-81
2022/07/11 11:39:39;;;;;;;1.58;0.80;;;;;;;29.48;24.14;99585.78;5011218;28;20026;-80
2022/07/11 11:42:13;;;;;;;0.57;0.30;;;;;;;29.68;27.35;99562.13;5011068;28;20029;-80
2022/07/11 11:44:53;;;;;;;1.15;0.57;;;;;;;29.29;27.22;99563.13;5011059;28;20038;-80